createdAt,value
2022-10-21T00:01:10.162Z,12.01
2022-10-21T00:03:11.522Z,12.05
2022-10-21T00:05:13.116Z,12.19
2022-10-21T00:07:14.492Z,12.11
2022-10-21T00:09:15.548Z,12.12
2022-10-21T00:11:17.247Z,12.17
2022-10-21T00:13:18.527Z,12.19
2022-10-21T00:15:20.037Z,12.08
2022-10-21T00:17:21.872Z,12.03
2022-10-21T00:19:23.765Z,11.96
2022-10-21T00:21:25.425Z,11.89
2022-10-21T00:23:26.574Z,11.88
2022-10-21T00:25:27.921Z,12.01
2022-10-21T00:27:28.924Z,12.04
2022-10-21T00:29:30.364Z,12.2
2022-10-21T00:31:31.416Z,12.12
2022-10-21T00:33:32.328Z,12.13
2022-10-21T00:35:33.643Z,12.1
2022-10-21T00:37:34.848Z,12.15
2022-10-21T00:41:37.795Z,12.33
2022-10-21T00:43:38.996Z,12.36
2022-10-21T00:45:40.149Z,12.38
2022-10-21T00:47:41.875Z,12.32
2022-10-21T00:49:43.065Z,12.26
2022-10-21T00:51:44.452Z,12.26
2022-10-21T00:53:45.466Z,12.3
2022-10-21T00:55:46.786Z,12.12
2022-10-21T00:57:48.389Z,12.14
2022-10-21T00:59:49.479Z,12.09
2022-10-21T01:01:50.851Z,12.05
2022-10-21T01:03:52.672Z,12.02
2022-10-21T01:05:53.600Z,11.89
2022-10-21T01:07:54.978Z,11.82
2022-10-21T01:09:56.118Z,11.8
2022-10-21T01:11:57.226Z,11.75
2022-10-21T01:13:59.065Z,11.78
2022-10-21T01:16:00.672Z,11.77
2022-10-21T01:18:01.928Z,11.78
2022-10-21T01:20:03.469Z,11.78
2022-10-21T01:22:05.026Z,11.76
2022-10-21T01:26:06.925Z,11.72
2022-10-21T01:28:08.007Z,11.7
2022-10-21T01:30:09.037Z,11.67
2022-10-21T01:32:10.200Z,11.66
2022-10-21T01:34:11.800Z,11.55
2022-10-21T01:36:13.435Z,11.4
2022-10-21T01:38:14.997Z,11.32
2022-10-21T01:40:16.331Z,11.21
2022-10-21T01:42:17.236Z,11.31
2022-10-21T01:44:18.472Z,11.34
2022-10-21T01:46:19.532Z,11.29
2022-10-21T01:48:20.575Z,11.26
2022-10-21T01:50:22.323Z,11.09
2022-10-21T01:52:24.225Z,11.01
2022-10-21T01:54:25.850Z,10.93
2022-10-21T01:56:27.497Z,10.95
2022-10-21T01:58:28.926Z,11
2022-10-21T02:00:29.992Z,10.83
2022-10-21T02:02:31.610Z,10.84
2022-10-21T02:04:33.278Z,10.95
2022-10-21T02:06:34.158Z,10.97
2022-10-21T02:08:35.397Z,10.92
2022-10-21T02:10:36.799Z,10.81
2022-10-21T02:12:38.539Z,10.62
2022-10-21T02:14:40.147Z,10.56
2022-10-21T02:16:41.452Z,10.76
2022-10-21T02:18:42.879Z,10.51
2022-10-21T02:22:45.270Z,10.48
2022-10-21T02:24:46.188Z,10.46
2022-10-21T02:26:47.579Z,10.56
2022-10-21T02:28:48.996Z,10.52
2022-10-21T02:30:50.782Z,10.45
2022-10-21T02:32:52.616Z,10.43
2022-10-21T02:34:54.175Z,10.53
2022-10-21T02:36:55.448Z,10.46
2022-10-21T02:38:56.879Z,10.5
2022-10-21T02:40:57.916Z,10.43
2022-10-21T02:42:58.855Z,10.44
2022-10-21T02:45:00.634Z,10.35
2022-10-21T02:47:02.083Z,10.3
2022-10-21T02:49:02.992Z,10.27
2022-10-21T02:51:04.536Z,10.26
2022-10-21T02:53:06.144Z,10.32
2022-10-21T02:55:07.411Z,10.4
2022-10-21T02:57:09.268Z,10.31
2022-10-21T02:59:10.604Z,10.21
2022-10-21T03:01:11.651Z,10.2
2022-10-21T03:03:13.212Z,10.25
2022-10-21T03:05:15.077Z,10.37
2022-10-21T03:07:16.726Z,10.36
2022-10-21T03:09:18.432Z,10.4
2022-10-21T03:11:19.748Z,10.4
2022-10-21T03:13:21.104Z,10.45
2022-10-21T03:15:22.090Z,10.45
2022-10-21T03:17:24.446Z,10.28
2022-10-21T03:19:24.818Z,10.23
2022-10-21T03:21:26.165Z,10.32
2022-10-21T03:23:27.758Z,10.43
2022-10-21T03:25:32.998Z,10.43
2022-10-21T03:29:31.887Z,10.51
2022-10-21T03:31:33.517Z,10.5
2022-10-21T03:33:34.973Z,10.59
2022-10-21T03:35:36.685Z,10.49
2022-10-21T03:37:38.557Z,10.45
2022-10-21T03:39:40.161Z,10.48
2022-10-21T03:40:23.964Z,10.47
2022-10-21T03:42:25.636Z,10.55
2022-10-21T03:44:27.258Z,10.31
2022-10-21T03:46:28.353Z,10.13
2022-10-21T03:48:29.461Z,10.16
2022-10-21T03:50:30.931Z,10.31
2022-10-21T03:52:32.461Z,10.64
2022-10-21T03:54:34.261Z,10.41
2022-10-21T03:56:35.470Z,10.17
2022-10-21T03:58:37.234Z,10.13
2022-10-21T04:00:38.421Z,10.04
2022-10-21T04:02:40.479Z,9.89
2022-10-21T04:04:41.653Z,9.96
2022-10-21T04:06:42.837Z,9.97
2022-10-21T04:08:43.891Z,9.99
2022-10-21T04:10:45.726Z,9.99
2022-10-21T04:12:47.074Z,10
2022-10-21T04:14:48.415Z,10
2022-10-21T04:16:53.545Z,9.94
2022-10-21T04:18:51.605Z,9.86
2022-10-21T04:20:53.310Z,9.83
2022-10-21T04:22:54.305Z,9.78
2022-10-21T04:24:55.374Z,9.7
2022-10-21T04:26:56.942Z,9.65
2022-10-21T04:28:58.707Z,9.56
2022-10-21T04:30:59.938Z,9.56
2022-10-21T04:33:01.220Z,9.63
2022-10-21T04:35:03.108Z,9.69
2022-10-21T04:37:05.218Z,9.73
2022-10-21T04:41:07.387Z,9.61
2022-10-21T04:43:08.986Z,9.46
2022-10-21T04:45:10.401Z,9.45
2022-10-21T04:47:11.701Z,9.43
2022-10-21T04:49:13.267Z,9.54
2022-10-21T04:51:14.872Z,9.64
2022-10-21T04:53:16.018Z,9.6
2022-10-21T04:55:17.314Z,9.59
2022-10-21T04:57:18.484Z,9.56
2022-10-21T04:59:19.474Z,9.57
2022-10-21T05:01:21.385Z,9.57
2022-10-21T05:03:22.470Z,9.77
2022-10-21T05:05:23.845Z,9.83
2022-10-21T05:07:24.855Z,9.79
2022-10-21T05:09:26.599Z,9.7
2022-10-21T05:11:27.992Z,9.72
2022-10-21T05:13:29.021Z,9.75
2022-10-21T05:15:30.546Z,9.79
2022-10-21T05:17:31.707Z,9.97
2022-10-21T05:19:33.441Z,10.09
2022-10-21T05:21:34.765Z,10.22
2022-10-21T05:23:36.610Z,10.26
2022-10-21T05:25:37.651Z,10.27
2022-10-21T05:27:38.588Z,10.13
2022-10-21T05:29:40.162Z,10.12
2022-10-21T05:31:41.339Z,10.23
2022-10-21T05:33:42.363Z,10.25
2022-10-21T05:35:43.250Z,10.32
2022-10-21T05:37:44.521Z,10.38
2022-10-21T05:39:46.096Z,10.4
2022-10-21T05:41:47.948Z,10.39
2022-10-21T05:43:49.180Z,10.42
2022-10-21T05:45:50.448Z,10.45
2022-10-21T05:47:52.131Z,10.43
2022-10-21T05:49:53.343Z,10.5
2022-10-21T05:51:54.960Z,10.39
2022-10-21T05:53:56.533Z,10.36
2022-10-21T05:55:57.694Z,10.34
2022-10-21T05:57:59.593Z,10.55
2022-10-21T06:00:00.458Z,10.47
2022-10-21T06:02:02.313Z,10.61
2022-10-21T06:04:04.067Z,10.27
2022-10-21T06:06:05.790Z,10.31
2022-10-21T06:08:07.271Z,10.38
2022-10-21T06:10:08.612Z,10.54
2022-10-21T06:12:09.979Z,10.53
2022-10-21T06:14:10.909Z,10.59
2022-10-21T06:16:12.413Z,10.64
2022-10-21T06:18:13.500Z,10.59
2022-10-21T06:20:14.533Z,10.62
2022-10-21T06:22:16.092Z,10.49
2022-10-21T06:24:18.000Z,10.4
2022-10-21T06:26:19.650Z,10.41
2022-10-21T06:28:21.480Z,10.48
2022-10-21T06:30:23.292Z,10.49
2022-10-21T06:32:24.582Z,10.51
2022-10-21T06:34:26.102Z,10.51
2022-10-21T06:36:27.018Z,10.59
2022-10-21T06:38:28.793Z,10.71
2022-10-21T06:40:29.827Z,10.76
2022-10-21T06:42:31.533Z,10.7
2022-10-21T06:44:32.612Z,10.65
2022-10-21T06:46:34.219Z,10.62
2022-10-21T06:48:36.311Z,10.71
2022-10-21T06:50:37.767Z,10.67
2022-10-21T06:52:38.992Z,10.68
2022-10-21T06:54:40.484Z,10.57
2022-10-21T06:56:41.442Z,10.53
2022-10-21T06:58:42.917Z,10.51
2022-10-21T07:00:44.198Z,10.58
2022-10-21T07:04:46.853Z,11.37
2022-10-21T07:06:48.091Z,11.05
2022-10-21T07:08:57.733Z,11.17
2022-10-21T07:10:51.823Z,11.28
2022-10-21T07:12:52.937Z,11.23
2022-10-21T07:14:54.725Z,11.25
2022-10-21T07:16:56.091Z,11.34
2022-10-21T07:18:57.913Z,11.4
2022-10-21T07:20:58.946Z,11.47
2022-10-21T07:22:59.913Z,11.73
2022-10-21T07:27:02.181Z,11.45
2022-10-21T07:29:03.386Z,11.38
2022-10-21T07:31:05.042Z,11.22
2022-10-21T07:33:06.461Z,11.27
2022-10-21T07:35:07.573Z,11.28
2022-10-21T07:37:08.541Z,11.34
2022-10-21T07:39:09.541Z,11.67
2022-10-21T07:45:13.376Z,12.8
2022-10-21T07:47:14.669Z,12.09
2022-10-21T07:49:15.916Z,11.69
2022-10-21T07:51:17.604Z,11.59
2022-10-21T07:53:18.840Z,11.47
2022-10-21T07:55:20.024Z,11.47
2022-10-21T07:57:21.563Z,11.35
2022-10-21T07:59:22.457Z,11.51
2022-10-21T08:01:23.625Z,11.7
2022-10-21T08:03:24.826Z,12.96
2022-10-21T08:05:26.060Z,13.34
2022-10-21T08:07:27.290Z,13.77
2022-10-21T08:09:29.078Z,13.9
2022-10-21T08:11:30.320Z,14.11
2022-10-21T08:13:31.257Z,14.17
2022-10-21T08:15:32.658Z,12.79
2022-10-21T08:17:34.334Z,12.85
2022-10-21T08:19:35.399Z,13.29
2022-10-21T08:21:36.871Z,13.8
2022-10-21T08:23:38.699Z,13.88
2022-10-21T08:25:39.870Z,14.03
2022-10-21T08:27:41.356Z,14.13
2022-10-21T08:29:42.598Z,14.15
2022-10-21T08:31:44.407Z,13.96
2022-10-21T08:33:45.737Z,13.53
2022-10-21T08:35:47.217Z,13.32
2022-10-21T08:37:48.253Z,13.29
2022-10-21T08:39:49.985Z,13.59
2022-10-21T08:41:51.424Z,13.78
2022-10-21T08:43:52.973Z,13.93
2022-10-21T08:45:53.974Z,13.85
2022-10-21T08:47:54.872Z,14
2022-10-21T08:49:56.494Z,14.21
2022-10-21T08:51:57.856Z,14.41
2022-10-21T08:53:59.199Z,14.6
2022-10-21T08:56:00.958Z,14.23
2022-10-21T08:58:02.426Z,14.27
2022-10-21T09:00:03.821Z,14.34
2022-10-21T09:02:05.496Z,14.24
2022-10-21T09:04:06.685Z,14.17
2022-10-21T09:06:07.807Z,14.32
2022-10-21T09:08:09.242Z,14.66
2022-10-21T09:10:10.299Z,14.76
2022-10-21T09:12:11.500Z,14.81
2022-10-21T09:14:13.472Z,14.87
2022-10-21T09:16:15.246Z,14.97
2022-10-21T09:18:16.581Z,15.05
2022-10-21T09:20:18.025Z,15.08
2022-10-21T09:22:34.120Z,15.03
2022-10-21T09:24:21.226Z,14.99
2022-10-21T09:26:24.339Z,15.07
2022-10-21T09:28:23.909Z,15.07
2022-10-21T09:30:25.137Z,15.13
2022-10-21T09:32:26.738Z,15.15
2022-10-21T09:34:28.457Z,15.14
2022-10-21T09:36:30.086Z,15.12
2022-10-21T09:38:31.922Z,15.07
2022-10-21T09:40:32.843Z,15.06
2022-10-21T09:42:46.665Z,15.07
2022-10-21T09:44:36.015Z,15.04
2022-10-21T09:46:37.092Z,15.03
2022-10-21T09:48:45.195Z,14.84
2022-10-21T09:50:39.319Z,14.78
2022-10-21T09:52:41.153Z,14.73
2022-10-21T09:54:42.338Z,14.74
2022-10-21T09:56:43.485Z,14.65
2022-10-21T09:58:44.435Z,14.55
2022-10-21T10:00:45.366Z,14.66
2022-10-21T10:02:46.607Z,14.6
2022-10-21T10:04:47.526Z,14.61
2022-10-21T10:06:48.621Z,14.62
2022-10-21T10:08:50.249Z,14.51
2022-10-21T10:10:51.699Z,14.41
2022-10-21T10:12:53.448Z,14.6
2022-10-21T10:14:54.974Z,14.75
2022-10-21T10:16:56.681Z,14.78
2022-10-21T10:18:57.598Z,14.82
2022-10-21T10:20:58.885Z,14.8
2022-10-21T10:23:00.067Z,14.83
2022-10-21T10:25:01.047Z,14.84
2022-10-21T10:26:03.044Z,14.85
2022-10-21T10:28:04.732Z,14.88
2022-10-21T10:30:05.990Z,14.9
2022-10-21T10:32:07.062Z,14.97
2022-10-21T10:34:08.209Z,14.99
2022-10-21T10:36:09.840Z,15.01
2022-10-21T10:38:10.776Z,14.99
2022-10-21T10:40:11.795Z,15.03
2022-10-21T10:42:13.511Z,15.04
2022-10-21T10:44:14.707Z,15.03
2022-10-21T10:46:16.492Z,15.03
2022-10-21T10:48:17.494Z,15.03
2022-10-21T10:50:18.447Z,15.06
2022-10-21T10:52:19.832Z,15.02
2022-10-21T10:54:20.773Z,15.07
2022-10-21T10:56:22.405Z,15.05
2022-10-21T10:58:25.488Z,15.13
2022-10-21T11:00:25.718Z,15.06
2022-10-21T11:02:27.486Z,15.13
2022-10-21T11:04:28.638Z,15.15
2022-10-21T11:06:30.466Z,15.24
2022-10-21T11:08:33.382Z,15.21
2022-10-21T11:10:33.384Z,15.27
2022-10-21T11:12:35.098Z,15.26
2022-10-21T11:14:36.361Z,15.29
2022-10-21T11:16:44.980Z,15.42
2022-10-21T11:18:39.544Z,15.54
2022-10-21T11:20:40.754Z,15.42
2022-10-21T11:22:42.484Z,15.56
2022-10-21T11:24:44.215Z,15.64
2022-10-21T11:26:45.530Z,15.72
2022-10-21T11:28:47.070Z,15.85
2022-10-21T11:30:47.943Z,15.83
2022-10-21T11:32:49.078Z,15.98
2022-10-21T11:34:50.802Z,16.09
2022-10-21T11:36:52.430Z,16.12
2022-10-21T11:38:53.974Z,16.11
2022-10-21T11:40:54.845Z,16.12
2022-10-21T11:42:56.318Z,16.2
2022-10-21T11:44:57.216Z,16.12
2022-10-21T11:46:58.472Z,16.21
2022-10-21T11:49:00.006Z,16.28
2022-10-21T11:51:02.412Z,16.22
2022-10-21T11:53:02.720Z,16.17
2022-10-21T11:55:10.175Z,16.09
2022-10-21T11:57:05.666Z,15.93
2022-10-21T11:59:07.240Z,15.88
2022-10-21T12:01:08.161Z,15.81
2022-10-21T12:03:09.698Z,15.8
2022-10-21T12:05:10.954Z,15.9
2022-10-21T12:07:12.080Z,16
2022-10-21T12:09:13.650Z,16.05
2022-10-21T12:11:14.918Z,16.15
2022-10-21T12:13:16.527Z,16.31
2022-10-21T12:15:18.105Z,16.45
2022-10-21T12:17:19.335Z,16.6
2022-10-21T12:19:20.337Z,16.64
2022-10-21T12:21:21.260Z,16.67
2022-10-21T12:23:22.592Z,16.54
2022-10-21T12:25:24.191Z,16.66
2022-10-21T12:27:25.301Z,16.73
2022-10-21T12:29:26.857Z,16.76
2022-10-21T12:31:28.561Z,16.62
2022-10-21T12:33:29.772Z,16.54
2022-10-21T12:35:31.064Z,16.57
2022-10-21T12:37:32.334Z,16.49
2022-10-21T12:41:34.816Z,16.48
2022-10-21T12:43:35.886Z,16.54
2022-10-21T12:45:36.940Z,16.54
2022-10-21T12:47:38.447Z,16.6
2022-10-21T12:49:39.711Z,16.67
2022-10-21T12:51:41.187Z,16.67
2022-10-21T12:53:43.031Z,16.66
2022-10-21T12:55:44.694Z,16.72
2022-10-21T12:57:46.195Z,16.6
2022-10-21T12:59:48.024Z,16.7
2022-10-21T13:01:49.670Z,16.71
2022-10-21T13:03:51.431Z,16.79
2022-10-21T13:05:53.143Z,16.79
2022-10-21T13:07:54.726Z,16.76
2022-10-21T13:09:56.490Z,16.79
2022-10-21T13:11:58.117Z,16.78
2022-10-21T13:13:59.219Z,16.77
2022-10-21T13:16:00.785Z,16.78
2022-10-21T13:18:03.022Z,16.77
2022-10-21T13:22:05.237Z,16.76
2022-10-21T13:24:06.866Z,16.78
2022-10-21T13:26:08.051Z,16.81
2022-10-21T13:28:09.226Z,16.82
2022-10-21T13:30:10.399Z,16.86
2022-10-21T13:32:11.287Z,16.87
2022-10-21T13:34:13.100Z,16.86
2022-10-21T13:36:14.653Z,16.9
2022-10-21T13:38:16.367Z,17.06
2022-10-21T13:40:18.080Z,17.24
2022-10-21T13:42:19.812Z,17.33
2022-10-21T13:44:19.750Z,17.42
2022-10-21T13:46:21.343Z,17.48
2022-10-21T13:48:22.502Z,17.71
2022-10-21T13:50:23.647Z,17.93
2022-10-21T13:52:25.426Z,17.62
2022-10-21T13:54:26.701Z,17.96
2022-10-21T13:56:28.389Z,17.91
2022-10-21T13:58:29.211Z,17.92
2022-10-21T14:00:30.386Z,17.87
2022-10-21T14:02:31.752Z,18.06
2022-10-21T14:04:32.620Z,18.25
2022-10-21T14:06:33.537Z,18.5
2022-10-21T14:08:34.539Z,18.09
2022-10-21T14:10:36.067Z,18.59
2022-10-21T14:12:37.810Z,18.73
2022-10-21T14:14:39.155Z,19.05
2022-10-21T14:16:40.823Z,18.56
2022-10-21T14:18:41.629Z,18.79
2022-10-21T14:20:42.569Z,18.25
2022-10-21T14:22:44.106Z,18.07
2022-10-21T14:24:45.222Z,18.08
2022-10-21T14:26:46.389Z,17.83
2022-10-21T14:28:47.640Z,17.78
2022-10-21T14:30:48.964Z,17.62
2022-10-21T14:32:49.955Z,17.56
2022-10-21T14:34:50.977Z,17.54
2022-10-21T14:36:52.790Z,17.44
2022-10-21T14:38:54.622Z,17.37
2022-10-21T14:40:55.816Z,17.38
2022-10-21T14:42:56.912Z,17.33
2022-10-21T14:44:57.810Z,17.33
2022-10-21T14:46:58.726Z,17.29
2022-10-21T14:49:00.029Z,17.31
2022-10-21T14:51:01.142Z,17.31
2022-10-21T14:53:02.627Z,17.27
2022-10-21T14:55:04.246Z,17.31
2022-10-21T14:57:05.675Z,17.26
2022-10-21T14:59:06.790Z,17.25
2022-10-21T15:01:07.790Z,17.24
2022-10-21T15:05:11.194Z,17.24
2022-10-21T15:07:12.906Z,17.09
2022-10-21T15:09:13.756Z,17.05
2022-10-21T15:11:15.456Z,17.07
2022-10-21T15:13:17.054Z,17.04
2022-10-21T15:15:18.566Z,17.04
2022-10-21T15:17:19.509Z,16.95
2022-10-21T15:19:20.823Z,16.91
2022-10-21T15:21:22.098Z,16.86
2022-10-21T15:23:23.157Z,16.83
2022-10-21T15:25:25.038Z,16.75
2022-10-21T15:27:25.882Z,16.71
2022-10-21T15:29:27.491Z,16.72
2022-10-21T15:31:29.053Z,16.74
2022-10-21T15:33:30.527Z,16.71
2022-10-21T15:35:31.711Z,16.57
2022-10-21T15:37:33.051Z,16.52
2022-10-21T15:39:34.067Z,16.4
2022-10-21T15:41:35.121Z,16.36
2022-10-21T15:43:36.213Z,16.33
2022-10-21T15:45:37.748Z,16.36
2022-10-21T15:47:39.452Z,16.32
2022-10-21T15:49:40.695Z,16.27
2022-10-21T15:51:42.096Z,16.27
2022-10-21T15:53:43.806Z,16.24
2022-10-21T15:55:44.571Z,16.17
2022-10-21T15:57:46.199Z,16.09
2022-10-21T15:59:47.741Z,16.15
2022-10-21T16:01:48.736Z,16.23
2022-10-21T16:03:49.790Z,16.23
2022-10-21T16:05:51.604Z,16.07
2022-10-21T16:08:01.119Z,16.02
2022-10-21T16:09:54.236Z,16.04
2022-10-21T16:11:59.201Z,16
2022-10-21T16:13:57.079Z,15.97
2022-10-21T16:15:58.893Z,15.96
2022-10-21T16:17:59.791Z,15.89
2022-10-21T16:20:01.438Z,15.91
2022-10-21T16:22:03.071Z,15.89
2022-10-21T16:24:04.184Z,15.92
2022-10-21T16:26:05.836Z,15.85
2022-10-21T16:28:07.429Z,15.87
2022-10-21T16:30:08.329Z,15.84
2022-10-21T16:32:09.298Z,15.81
2022-10-21T16:34:10.630Z,15.97
2022-10-21T16:36:11.998Z,15.91
2022-10-21T16:38:13.480Z,15.88
2022-10-21T16:40:15.128Z,15.82
2022-10-21T16:42:16.461Z,15.8
2022-10-21T16:44:17.951Z,15.77
2022-10-21T16:46:21.239Z,15.82
2022-10-21T16:48:21.330Z,15.82
2022-10-21T16:50:23.144Z,15.75
2022-10-21T16:52:24.539Z,15.77
2022-10-21T16:54:26.210Z,15.78
2022-10-21T16:58:29.261Z,15.69
2022-10-21T17:00:30.524Z,15.54
2022-10-21T17:02:31.606Z,15.45
2022-10-21T17:04:33.104Z,15.38
2022-10-21T17:06:34.642Z,15.34
2022-10-21T17:08:36.245Z,15.29
2022-10-21T17:10:37.118Z,15.49
2022-10-21T17:13:22.515Z,15.61
2022-10-21T17:15:23.757Z,15.55
2022-10-21T17:17:24.850Z,15.41
2022-10-21T17:19:25.924Z,15.3
2022-10-21T17:23:28.642Z,15.28
2022-10-21T17:25:29.625Z,15.33
2022-10-21T17:27:31.447Z,15.3
2022-10-21T17:29:33.063Z,15.29
2022-10-21T17:31:34.932Z,15.21
2022-10-21T17:33:36.243Z,15.16
2022-10-21T17:35:37.276Z,15.07
2022-10-21T17:37:38.521Z,15.05
2022-10-21T17:39:39.784Z,15.14
2022-10-21T17:41:41.447Z,15.14
2022-10-21T17:43:42.504Z,15.24
2022-10-21T17:45:43.859Z,15.25
2022-10-21T17:47:44.959Z,15.22
2022-10-21T17:49:46.024Z,15.15
2022-10-21T17:51:47.654Z,15.17
2022-10-21T17:53:49.208Z,15.04
2022-10-21T17:55:50.984Z,15.01
2022-10-21T17:57:52.305Z,14.92
2022-10-21T17:59:53.249Z,14.86
2022-10-21T18:01:54.199Z,14.98
2022-10-21T18:03:55.719Z,14.97
2022-10-21T18:05:57.494Z,14.95
2022-10-21T18:07:59.334Z,14.9
2022-10-21T18:10:00.257Z,14.66
2022-10-21T18:12:03.354Z,14.62
2022-10-21T18:14:02.569Z,14.58
2022-10-21T18:16:03.894Z,14.62
2022-10-21T18:18:05.192Z,14.66
2022-10-21T18:20:06.563Z,14.65
2022-10-21T18:22:08.409Z,14.6
2022-10-21T18:24:12.322Z,14.59
2022-10-21T18:26:10.488Z,14.67
2022-10-21T18:28:11.498Z,14.67
2022-10-21T18:30:12.769Z,14.59
2022-10-21T18:32:14.712Z,14.79
2022-10-21T18:34:15.230Z,14.86
2022-10-21T18:36:16.682Z,14.89
2022-10-21T18:38:17.871Z,14.89
2022-10-21T18:40:18.839Z,14.86
2022-10-21T18:42:20.702Z,14.84
2022-10-21T18:44:22.554Z,14.79
2022-10-21T18:46:24.305Z,14.78
2022-10-21T18:48:25.357Z,14.64
2022-10-21T18:50:26.248Z,14.71
2022-10-21T18:52:27.517Z,14.67
2022-10-21T18:54:29.368Z,14.6
2022-10-21T18:56:30.465Z,14.47
2022-10-21T18:58:32.027Z,14.49
2022-10-21T19:00:33.813Z,14.44
2022-10-21T19:04:36.507Z,14.32
2022-10-21T19:06:38.205Z,14.32
2022-10-21T19:08:39.924Z,14.21
2022-10-21T19:10:41.568Z,14.12
2022-10-21T19:12:42.577Z,14.08
2022-10-21T19:14:43.692Z,14.03
2022-10-21T19:16:44.634Z,14
2022-10-21T19:18:45.610Z,13.89
2022-10-21T19:20:46.996Z,13.95
2022-10-21T19:22:48.213Z,14.07
2022-10-21T19:24:49.388Z,13.94
2022-10-21T19:26:51.018Z,13.99
2022-10-21T19:28:52.430Z,14.07
2022-10-21T19:30:53.334Z,14.09
2022-10-21T19:32:54.578Z,14.13
2022-10-21T19:34:55.516Z,14.07
2022-10-21T19:36:56.748Z,13.97
2022-10-21T19:38:58.527Z,13.88
2022-10-21T19:41:00.397Z,13.74
2022-10-21T19:43:01.842Z,13.71
2022-10-21T19:45:03.210Z,13.66
2022-10-21T19:47:04.512Z,13.59
2022-10-21T19:49:05.563Z,13.5
2022-10-21T19:51:07.963Z,13.47
2022-10-21T19:53:08.974Z,13.36
2022-10-21T19:55:10.189Z,13.38
2022-10-21T19:57:11.865Z,13.38
2022-10-21T19:59:13.425Z,13.4
2022-10-21T20:01:15.154Z,13.31
2022-10-21T20:03:16.344Z,13.29
2022-10-21T20:05:17.192Z,13.3
2022-10-21T20:07:18.670Z,13.21
2022-10-21T20:09:19.869Z,13.21
2022-10-21T20:11:20.970Z,13.28
2022-10-21T20:13:21.946Z,13.27
2022-10-21T20:15:22.919Z,13.21
2022-10-21T20:17:24.130Z,13.24
2022-10-21T20:19:25.432Z,13.24
2022-10-21T20:21:27.135Z,13.28
2022-10-21T20:23:28.103Z,13.2
2022-10-21T20:25:29.876Z,13.14
2022-10-21T20:27:30.860Z,13.12
2022-10-21T20:29:32.416Z,13.1
2022-10-21T20:31:34.151Z,13.23
2022-10-21T20:33:35.185Z,13.21
2022-10-21T20:35:36.461Z,13.32
2022-10-21T20:37:38.320Z,13.37
2022-10-21T20:39:39.756Z,13.4
2022-10-21T20:41:40.780Z,13.39
2022-10-21T20:43:41.800Z,13.25
2022-10-21T20:45:42.996Z,13.14
2022-10-21T20:47:44.161Z,13.05
2022-10-21T20:49:45.887Z,13.03
2022-10-21T20:51:47.612Z,13.01
2022-10-21T20:53:49.074Z,12.85
2022-10-21T20:55:50.103Z,12.81
2022-10-21T20:57:51.627Z,12.79
2022-10-21T20:59:53.012Z,12.74
2022-10-21T21:01:54.675Z,12.87
2022-10-21T21:03:55.785Z,12.85
2022-10-21T21:05:57.585Z,12.8
2022-10-21T21:07:59.150Z,12.85
2022-10-21T21:10:03.011Z,12.81
2022-10-21T21:12:01.644Z,12.81
2022-10-21T21:14:02.933Z,12.81
2022-10-21T21:16:04.648Z,12.7
2022-10-21T21:18:06.109Z,12.64
2022-10-21T21:20:07.726Z,12.5
2022-10-21T21:22:09.505Z,12.44
2022-10-21T21:24:10.723Z,12.39
2022-10-21T21:26:12.282Z,12.32
2022-10-21T21:28:13.600Z,12.31
2022-10-21T21:30:14.904Z,12.31
2022-10-21T21:32:16.321Z,12.33
2022-10-21T21:34:17.678Z,12.55
2022-10-21T21:36:18.798Z,12.54
2022-10-21T21:38:19.805Z,12.46
2022-10-21T21:40:21.338Z,12.41
2022-10-21T21:42:23.033Z,12.38
2022-10-21T21:44:24.084Z,12.32
2022-10-21T21:46:25.466Z,12.45
2022-10-21T21:48:26.448Z,12.46
2022-10-21T21:50:27.487Z,12.47
2022-10-21T21:52:28.712Z,12.52
2022-10-21T21:54:30.432Z,12.55
2022-10-21T21:56:32.081Z,12.6
2022-10-21T21:58:33.887Z,12.59
2022-10-21T22:00:35.185Z,12.55
2022-10-21T22:02:36.130Z,12.54
2022-10-21T22:04:37.374Z,12.51
2022-10-21T22:06:38.784Z,12.5
2022-10-21T22:08:40.227Z,12.45
2022-10-21T22:10:41.750Z,12.41
2022-10-21T22:12:43.125Z,12.39
2022-10-21T22:14:44.892Z,12.44
2022-10-21T22:16:46.356Z,12.56
2022-10-21T22:18:47.774Z,12.49
2022-10-21T22:20:49.009Z,12.27
2022-10-21T22:22:50.871Z,12.21
2022-10-21T22:24:52.478Z,12.22
2022-10-21T22:26:54.125Z,12.26
2022-10-21T22:28:56.001Z,12.29
2022-10-21T22:30:57.134Z,12.31
2022-10-21T22:32:58.543Z,12.36
2022-10-21T22:34:59.880Z,12.59
2022-10-21T22:37:00.774Z,12.72
2022-10-21T22:39:01.957Z,12.59
2022-10-21T22:41:05.156Z,12.92
2022-10-21T22:43:04.301Z,12.9
2022-10-21T22:45:05.383Z,12.72
2022-10-21T22:47:06.834Z,12.48
2022-10-21T22:49:08.664Z,12.45
2022-10-21T22:51:09.981Z,12.62
2022-10-21T22:53:11.271Z,12.58
2022-10-21T22:55:12.670Z,12.44
2022-10-21T22:57:14.289Z,12.35
2022-10-21T22:59:16.149Z,12.33
2022-10-21T23:01:17.502Z,12.35
2022-10-21T23:03:18.467Z,12.35
2022-10-21T23:05:19.485Z,12.36
2022-10-21T23:09:21.821Z,12.36
2022-10-21T23:11:23.370Z,12.37
2022-10-21T23:13:24.508Z,12.35
2022-10-21T23:15:25.746Z,12.34
2022-10-21T23:17:26.896Z,12.33
2022-10-21T23:19:28.510Z,12.28
2022-10-21T23:21:30.217Z,12.26
2022-10-21T23:23:31.133Z,12.29
2022-10-21T23:25:32.410Z,12.29
2022-10-21T23:27:33.488Z,12.26
2022-10-21T23:29:34.767Z,12.28
2022-10-21T23:31:36.263Z,12.5
2022-10-21T23:33:38.097Z,12.73
2022-10-21T23:35:39.808Z,12.63
2022-10-21T23:37:41.502Z,12.53
2022-10-21T23:39:42.232Z,12.52
2022-10-21T23:41:43.359Z,12.49
2022-10-21T23:43:44.282Z,12.47
2022-10-21T23:45:45.340Z,12.44
2022-10-21T23:47:46.473Z,12.55
2022-10-21T23:49:48.131Z,12.7
2022-10-21T23:51:49.920Z,12.59
2022-10-21T23:53:51.595Z,12.71
2022-10-21T23:55:52.988Z,12.75
2022-10-21T23:58:37.721Z,12.75
